Delphia, Montana
Current Conditions -  °F | °C
As of 9:35 AM on Friday 31 Oct 2014 (Local Time) from KMVH Reporting Station
Clear Clear  
Wind Chill: 54°   Ceiling: Unl
Heat Index: 54°   Visibility: 10mi
Dew Point: 25°   Wind: 18mph
Humidity: 33%   Direction: 220°SW
Pressure: 29.93"   Gusts: 30mph
Location:  46.5044°N, 108.218°W
Report Text: KMVH 311535Z AUTO 22016G26KT 10SM CLR 12/M04 A2993 RMK A01
Loading
Personal Weather Stations






























Interactive Weather Map
Tropical Storm Tracking
New forecast layout! Learn more

10-Day Weather Forecast

Advertisements
Track Severe Weather on mobile